Time;durP1;ratioP1;P1;durP2;ratioP2;P2;SDS_P1;SDS_P2;PMS_P1;PMS_P2;Temp;Humidity;BMP_temperature;BMP_pressure;BME280_temperature;BME280_humidity;BME280_pressure;Samples;Min_cycle;Max_cycle;Signal;HPM_P1;HPM_P2
2023/04/15 00:03:56;;;;;;;3.67;3.20;;;8.30;97.20;;;;;;10376635;28;20225;-80
2023/04/15 00:08:59;;;;;;;3.67;3.40;;;8.30;98.10;;;;;;10365086;28;20218;-80
2023/04/15 00:14:01;;;;;;;5.57;3.60;;;8.20;97.80;;;;;;10375310;28;20207;-80
2023/04/15 00:19:03;;;;;;;10.23;3.77;;;8.30;98.80;;;;;;10348110;28;20666;-79
2023/04/15 00:24:07;;;;;;;4.53;3.87;;;8.30;98.70;;;;;;10359377;28;20221;-79
2023/04/15 00:29:09;;;;;;;5.53;3.80;;;8.30;98.80;;;;;;10350316;28;20287;-79
2023/04/15 00:34:11;;;;;;;6.30;3.20;;;8.30;99.00;;;;;;10368725;28;20201;-79
2023/04/15 00:39:15;;;;;;;4.30;3.67;;;8.30;99.10;;;;;;10362845;28;20581;-80
2023/04/15 00:44:18;;;;;;;4.03;3.67;;;8.20;98.80;;;;;;10366470;28;20199;-80
2023/04/15 00:49:21;;;;;;;7.10;4.50;;;8.20;99.50;;;;;;10419966;28;20258;-79
2023/04/15 00:54:24;;;;;;;12.10;7.93;;;8.20;99.30;;;;;;10403159;28;20256;-80
2023/04/15 00:59:26;;;;;;;5.67;4.90;;;8.20;99.60;;;;;;10401493;28;20634;-79
2023/04/15 01:04:30;;;;;;;5.17;4.67;;;8.20;99.40;;;;;;10415874;28;20254;-80
2023/04/15 01:09:34;;;;;;;4.17;3.87;;;8.20;98.00;;;;;;10419479;28;20299;-79
2023/04/15 01:14:36;;;;;;;4.27;3.93;;;8.00;98.60;;;;;;10421545;28;20202;-79
2023/04/15 01:19:39;;;;;;;6.67;4.20;;;8.00;98.50;;;;;;10420594;28;20693;-79
2023/04/15 01:24:47;;;;;;;12.07;7.93;;;7.90;98.30;;;;;;10422177;28;20253;-80
2023/04/15 01:29:50;;;;;;;19.70;10.50;;;7.80;99.30;;;;;;10419729;28;20220;-79
2023/04/15 01:34:53;;;;;;;5.43;4.60;;;7.70;99.70;;;;;;10405279;28;20194;-79
2023/04/15 01:39:59;;;;;;;6.53;4.60;;;7.80;99.00;;;;;;10401541;28;20556;-79
2023/04/15 01:45:03;;;;;;;5.80;4.60;;;7.70;99.20;;;;;;10399534;28;20200;-80
2023/04/15 01:50:07;;;;;;;4.60;4.20;;;7.70;99.60;;;;;;10420574;28;20215;-80
2023/04/15 01:55:10;;;;;;;7.37;5.13;;;7.70;99.90;;;;;;10422157;28;20253;-79
2023/04/15 02:00:16;;;;;;;8.67;6.23;;;7.70;99.90;;;;;;10421503;28;20222;-80
2023/04/15 02:05:18;;;;;;;10.67;7.07;;;7.70;99.90;;;;;;10407464;28;20245;-80
2023/04/15 02:10:22;;;;;;;24.87;12.27;;;7.70;99.90;;;;;;10430695;28;20725;-80
2023/04/15 02:15:26;;;;;;;7.20;5.67;;;7.70;99.90;;;;;;10424866;28;20262;-79
2023/04/15 02:20:29;;;;;;;5.20;4.80;;;7.70;99.90;;;;;;10431217;28;20207;-80
2023/04/15 02:25:33;;;;;;;8.90;5.43;;;7.60;99.50;;;;;;10414056;28;20570;-79
2023/04/15 02:30:36;;;;;;;10.20;4.97;;;7.60;99.50;;;;;;10430796;28;20215;-80
2023/04/15 02:35:43;;;;;;;5.57;4.57;;;7.50;99.20;;;;;;10413538;28;20240;-81
2023/04/15 02:40:45;;;;;;;7.60;5.47;;;7.40;99.60;;;;;;10431118;28;20230;-80
2023/04/15 02:45:51;;;;;;;5.13;4.67;;;7.40;99.70;;;;;;10412956;28;20199;-80
2023/04/15 02:50:53;;;;;;;6.10;4.70;;;7.40;99.30;;;;;;10429878;28;20215;-81
2023/04/15 02:55:55;;;;;;;5.30;4.37;;;7.30;98.80;;;;;;10414956;28;20205;-80
2023/04/15 03:00:59;;;;;;;10.30;5.60;;;7.20;99.90;;;;;;10416112;28;20211;-80
2023/04/15 03:06:01;;;;;;;5.43;4.93;;;7.20;99.90;;;;;;10436620;28;20218;-80
2023/04/15 03:11:04;;;;;;;12.60;4.93;;;7.20;99.90;;;;;;10426455;28;20226;-79
2023/04/15 03:16:09;;;;;;;6.00;4.57;;;7.20;98.90;;;;;;10403645;28;20260;-81
2023/04/15 03:21:11;;;;;;;4.87;4.47;;;7.10;98.90;;;;;;10423531;28;20628;-80
2023/04/15 03:26:24;;;;;;;4.30;3.97;;;7.10;98.90;;;;;;10405422;28;20209;-80
2023/04/15 03:31:29;;;;;;;4.97;4.47;;;7.10;99.50;;;;;;10423212;28;20213;-79
2023/04/15 03:36:32;;;;;;;5.83;4.20;;;7.10;99.20;;;;;;10424110;28;20197;-79
2023/04/15 03:41:34;;;;;;;8.40;4.30;;;7.10;99.90;;;;;;10424221;28;20216;-78
2023/04/15 03:46:37;;;;;;;7.03;4.63;;;7.10;99.90;;;;;;10423059;28;20205;-79
2023/04/15 03:51:40;;;;;;;7.70;4.80;;;7.00;99.90;;;;;;10420862;28;20215;-80
2023/04/15 03:56:42;;;;;;;5.30;4.33;;;7.10;99.90;;;;;;10422421;28;20198;-80
2023/04/15 04:01:45;;;;;;;4.93;4.53;;;7.10;99.90;;;;;;10422924;28;20212;-79
2023/04/15 04:06:47;;;;;;;6.33;4.30;;;7.10;99.90;;;;;;10418088;28;20187;-79
2023/04/15 04:11:51;;;;;;;7.20;4.00;;;7.10;99.90;;;;;;10424484;28;20278;-79
2023/04/15 04:16:55;;;;;;;7.43;4.10;;;7.10;99.20;;;;;;10426190;28;20196;-79
2023/04/15 04:22:00;;;;;;;4.60;4.20;;;7.00;99.40;;;;;;10418173;28;20221;-79
2023/04/15 04:27:02;;;;;;;6.87;4.57;;;6.90;99.80;;;;;;10416402;28;20198;-79
2023/04/15 04:32:06;;;;;;;6.07;4.30;;;6.90;99.40;;;;;;10421547;28;20304;-79
2023/04/15 04:37:08;;;;;;;8.13;5.13;;;6.90;99.30;;;;;;10420122;28;20192;-79
2023/04/15 04:42:10;;;;;;;4.90;4.10;;;6.80;99.70;;;;;;10395195;28;20220;-80
2023/04/15 04:47:14;;;;;;;5.80;3.60;;;6.80;99.90;;;;;;10423803;28;20190;-78
2023/04/15 04:52:16;;;;;;;5.87;4.00;;;6.80;99.90;;;;;;10422429;28;20225;-78
2023/04/15 04:57:18;;;;;;;13.30;10.37;;;6.80;99.90;;;;;;10423283;28;20256;-78
2023/04/15 05:02:21;;;;;;;6.73;6.13;;;6.80;99.70;;;;;;10423639;28;20250;-79
2023/04/15 05:07:23;;;;;;;7.07;5.47;;;6.80;99.90;;;;;;10421788;28;20205;-79
2023/04/15 05:12:25;;;;;;;8.03;5.47;;;6.70;99.90;;;;;;10424376;28;20600;-78
2023/04/15 05:17:30;;;;;;;5.20;4.70;;;6.70;99.90;;;;;;10420623;28;20202;-79
2023/04/15 05:22:32;;;;;;;5.20;4.70;;;6.80;99.70;;;;;;10420838;28;20221;-79
2023/04/15 05:27:34;;;;;;;4.90;4.50;;;6.80;99.90;;;;;;10419277;28;20200;-79
2023/04/15 05:32:38;;;;;;;8.70;4.57;;;6.80;99.80;;;;;;10423211;28;20309;-79
2023/04/15 05:37:40;;;;;;;10.27;5.97;;;6.80;99.20;;;;;;10422388;28;20250;-79
2023/04/15 05:42:42;;;;;;;6.27;4.77;;;6.80;99.90;;;;;;10429621;28;20227;-79
2023/04/15 05:47:46;;;;;;;7.27;5.17;;;6.90;99.90;;;;;;10430523;28;20202;-79
2023/04/15 05:52:48;;;;;;;8.87;5.73;;;6.90;99.50;;;;;;10431404;28;20220;-79
2023/04/15 05:57:51;;;;;;;5.67;5.17;;;7.00;99.90;;;;;;10431500;28;20197;-79
2023/04/15 06:02:56;;;;;;;4.87;4.40;;;7.10;99.90;;;;;;10429759;28;20598;-78
2023/04/15 06:07:58;;;;;;;6.57;5.20;;;7.30;99.90;;;;;;10430326;28;20191;-79
2023/04/15 06:13:00;;;;;;;7.50;5.70;;;7.40;99.90;;;;;;10428066;28;20216;-79
2023/04/15 06:18:04;;;;;;;7.73;5.30;;;7.60;99.90;;;;;;10418289;28;20252;-79
2023/04/15 06:23:06;;;;;;;5.10;4.70;;;7.90;99.90;;;;;;10428469;28;20630;-79
2023/04/15 06:28:08;;;;;;;7.43;6.50;;;8.10;99.90;;;;;;10426901;28;20677;-79
2023/04/15 06:33:12;;;;;;;6.17;5.60;;;8.40;99.90;;;;;;10426655;28;20257;-80
2023/04/15 06:38:14;;;;;;;6.13;5.53;;;8.70;99.90;;;;;;10427798;28;20212;-79
2023/04/15 06:43:16;;;;;;;6.20;5.30;;;8.90;99.90;;;;;;10428718;28;20245;-79
2023/04/15 06:48:19;;;;;;;6.03;5.53;;;9.10;99.90;;;;;;10427211;28;20268;-80
2023/04/15 06:53:21;;;;;;;7.40;6.03;;;9.40;99.90;;;;;;10427942;28;20215;-78
2023/04/15 06:58:24;;;;;;;7.77;6.97;;;9.50;99.70;;;;;;10429164;28;20191;-79
2023/04/15 07:03:27;;;;;;;8.70;7.90;;;9.70;99.60;;;;;;10428948;28;20218;-79
2023/04/15 07:08:30;;;;;;;9.93;8.73;;;9.80;99.70;;;;;;10428760;28;20196;-79
2023/04/15 07:13:32;;;;;;;8.77;7.97;;;9.90;99.10;;;;;;10427477;28;20218;-79
2023/04/15 07:18:36;;;;;;;8.97;7.47;;;10.00;98.40;;;;;;10428121;28;20206;-79
2023/04/15 07:23:38;;;;;;;8.83;7.93;;;10.10;98.60;;;;;;10428037;28;20218;-80
2023/04/15 07:28:40;;;;;;;9.60;7.97;;;10.20;98.60;;;;;;10427780;28;20587;-80
2023/04/15 07:33:43;;;;;;;9.43;8.30;;;10.30;98.70;;;;;;10427359;28;20234;-80
2023/04/15 07:38:46;;;;;;;10.87;6.80;;;10.50;98.40;;;;;;10428752;28;20225;-80
2023/04/15 07:43:48;;;;;;;10.40;7.60;;;10.70;98.10;;;;;;10355603;28;20288;-80
2023/04/15 07:48:52;;;;;;;7.80;7.00;;;10.90;98.00;;;;;;10398586;28;20683;-80
2023/04/15 07:53:54;;;;;;;7.80;7.00;;;11.10;96.20;;;;;;10425101;28;20768;-80
2023/04/15 07:58:56;;;;;;;8.70;7.27;;;11.30;96.60;;;;;;10426512;28;20209;-80
2023/04/15 08:03:59;;;;;;;7.70;6.87;;;11.50;97.30;;;;;;10392434;28;20647;-81
2023/04/15 08:09:01;;;;;;;7.60;6.00;;;11.70;96.20;;;;;;10424599;28;20555;-80
2023/04/15 08:14:03;;;;;;;7.17;6.43;;;12.00;95.00;;;;;;10426338;28;20210;-79
2023/04/15 08:19:07;;;;;;;7.23;6.57;;;12.20;94.10;;;;;;10394576;28;20249;-80
2023/04/15 08:24:10;;;;;;;7.13;5.77;;;12.30;94.10;;;;;;10426417;28;20230;-80
2023/04/15 08:29:12;;;;;;;6.13;5.50;;;12.40;94.80;;;;;;10428064;28;20686;-80
2023/04/15 08:34:17;;;;;;;6.43;5.63;;;12.50;94.60;;;;;;10405682;28;20667;-80
2023/04/15 08:39:19;;;;;;;6.20;5.40;;;12.80;93.90;;;;;;10419848;28;20202;-80
2023/04/15 08:44:23;;;;;;;5.47;4.97;;;13.10;93.50;;;;;;10374218;28;20215;-80
2023/04/15 08:49:27;;;;;;;6.00;4.97;;;13.40;93.50;;;;;;10384488;28;20231;-80
2023/04/15 08:54:30;;;;;;;5.67;4.97;;;13.60;93.50;;;;;;10381108;28;20266;-80
2023/04/15 08:59:32;;;;;;;7.20;5.50;;;13.90;92.10;;;;;;10380167;28;20272;-80
2023/04/15 09:04:36;;;;;;;5.90;5.33;;;14.20;91.00;;;;;;10381738;28;20249;-80
2023/04/15 09:09:39;;;;;;;6.40;4.77;;;14.40;91.60;;;;;;10352792;28;20231;-80
2023/04/15 09:14:42;;;;;;;5.20;4.83;;;14.50;90.80;;;;;;10379220;28;20198;-81
2023/04/15 09:19:45;;;;;;;6.40;5.70;;;14.70;91.00;;;;;;10380153;28;20223;-81
2023/04/15 09:24:47;;;;;;;5.90;5.20;;;14.90;89.40;;;;;;10377236;28;20230;-81
2023/04/15 09:29:50;;;;;;;8.40;4.43;;;15.20;88.70;;;;;;10383712;28;20303;-81
2023/04/15 09:34:53;;;;;;;5.63;4.60;;;15.50;87.80;;;;;;10377148;28;20201;-80
2023/04/15 09:39:55;;;;;;;4.20;3.67;;;15.80;85.50;;;;;;10380009;28;20559;-81
2023/04/15 09:45:08;;;;;;;4.37;3.60;;;16.00;84.00;;;;;;10367473;28;20294;-81
2023/04/15 09:50:13;;;;;;;4.30;3.93;;;16.30;80.50;;;;;;10374604;28;20282;-82
2023/04/15 09:55:18;;;;;;;4.90;4.60;;;16.50;79.30;;;;;;10378580;28;20651;-82
2023/04/15 10:00:20;;;;;;;5.63;4.07;;;16.50;79.50;;;;;;10365640;28;20228;-82
2023/04/15 10:05:24;;;;;;;4.57;3.70;;;16.40;79.70;;;;;;10376487;28;20229;-82
2023/04/15 10:10:26;;;;;;;4.20;3.80;;;16.30;79.80;;;;;;10408786;28;20238;-82
2023/04/15 10:15:29;;;;;;;6.10;3.87;;;16.30;78.20;;;;;;10366819;28;20618;-83
2023/04/15 10:20:33;;;;;;;4.57;4.17;;;16.30;77.80;;;;;;10405506;28;20218;-82
2023/04/15 10:25:37;;;;;;;3.83;3.37;;;16.20;79.20;;;;;;10415728;28;20700;-80
2023/04/15 10:30:39;;;;;;;3.43;3.13;;;16.00;78.00;;;;;;10423955;28;20297;-82
2023/04/15 10:35:45;;;;;;;5.90;5.33;;;15.80;81.20;;;;;;10419839;28;20746;-81
2023/04/15 10:40:47;;;;;;;4.70;4.20;;;15.80;78.40;;;;;;10424921;28;20234;-82
2023/04/15 10:45:50;;;;;;;7.40;3.50;;;15.80;79.80;;;;;;10408380;28;20222;-84
2023/04/15 10:50:58;;;;;;;4.80;4.40;;;15.80;79.40;;;;;;10424602;28;20610;-84
2023/04/15 10:56:00;;;;;;;3.40;3.10;;;15.90;77.80;;;;;;10425833;28;20274;-83
2023/04/15 11:01:13;;;;;;;4.80;4.07;;;15.90;76.80;;;;;;10417838;28;20211;-82
2023/04/15 11:06:17;;;;;;;3.73;3.40;;;15.80;78.70;;;;;;10428328;28;20218;-81
2023/04/15 11:11:19;;;;;;;5.10;4.17;;;15.80;79.10;;;;;;10433220;28;20214;-81
2023/04/15 11:16:21;;;;;;;4.63;4.23;;;15.70;76.40;;;;;;10433862;28;20198;-82
2023/04/15 11:21:27;;;;;;;4.70;4.40;;;15.60;76.60;;;;;;10414371;28;20223;-82
2023/04/15 11:26:29;;;;;;;4.53;4.13;;;15.50;78.70;;;;;;10416864;28;20321;-81
2023/04/15 11:31:31;;;;;;;5.13;4.63;;;15.50;80.70;;;;;;10411696;28;20218;-85
2023/04/15 11:36:34;;;;;;;5.00;3.50;;;15.60;81.50;;;;;;10401646;28;20425;-83
2023/04/15 11:41:36;;;;;;;4.40;4.00;;;15.80;76.10;;;;;;10420044;28;20214;-83
2023/04/15 11:46:38;;;;;;;6.20;4.10;;;16.00;77.40;;;;;;10422748;28;20249;-83
2023/04/15 11:51:42;;;;;;;4.80;4.30;;;16.00;76.60;;;;;;10403812;28;20265;-84
2023/04/15 11:56:51;;;;;;;4.33;4.00;;;15.90;77.00;;;;;;10420861;28;20195;-82
2023/04/15 12:01:53;;;;;;;4.00;3.70;;;15.70;76.30;;;;;;10423985;28;20713;-84
2023/04/15 12:07:04;;;;;;;4.70;4.00;;;15.80;81.20;;;;;;10417721;28;20234;-82
2023/04/15 12:12:06;;;;;;;6.70;4.80;;;15.80;77.10;;;;;;10417225;28;20713;-83
2023/04/15 12:17:12;;;;;;;5.30;4.80;;;15.90;77.20;;;;;;10419286;28;20174;-82
2023/04/15 12:22:16;;;;;;;5.90;5.00;;;15.90;81.10;;;;;;10428809;28;20222;-82
2023/04/15 12:27:19;;;;;;;5.80;4.73;;;15.80;76.40;;;;;;10419601;28;20214;-83
2023/04/15 12:32:23;;;;;;;4.57;4.17;;;15.70;75.30;;;;;;10417821;28;20214;-82
2023/04/15 12:37:26;;;;;;;5.97;4.27;;;15.60;76.00;;;;;;10418020;28;20199;-82
2023/04/15 12:42:28;;;;;;;4.90;4.40;;;15.40;80.40;;;;;;10417604;28;20323;-82
2023/04/15 12:47:30;;;;;;;6.50;5.33;;;15.00;84.50;;;;;;10418969;28;20194;-82
2023/04/15 12:52:34;;;;;;;4.97;4.57;;;14.60;88.70;;;;;;10417390;28;20241;-82
2023/04/15 12:57:36;;;;;;;4.70;4.40;;;14.20;92.10;;;;;;10401899;28;20203;-82
2023/04/15 13:02:38;;;;;;;4.93;4.53;;;13.90;92.90;;;;;;10415672;28;20249;-82
2023/04/15 13:07:41;;;;;;;5.27;4.80;;;13.70;93.50;;;;;;10415076;28;20195;-82
2023/04/15 13:12:45;;;;;;;4.50;3.73;;;13.70;92.00;;;;;;10413791;28;20218;-82
2023/04/15 13:17:47;;;;;;;4.20;3.90;;;13.80;92.60;;;;;;10413447;28;20195;-82
2023/04/15 13:22:52;;;;;;;4.27;3.97;;;13.90;91.90;;;;;;10415408;28;20222;-82
2023/04/15 13:27:54;;;;;;;4.47;3.87;;;14.00;89.70;;;;;;10415532;28;20191;-82
2023/04/15 13:32:56;;;;;;;4.73;4.10;;;14.10;87.30;;;;;;10414018;28;20206;-82
2023/04/15 13:38:00;;;;;;;4.00;3.70;;;14.20;87.50;;;;;;10413418;28;20205;-82
2023/04/15 13:43:02;;;;;;;4.40;3.97;;;14.30;89.50;;;;;;10415208;28;20241;-82
2023/04/15 13:48:05;;;;;;;3.43;3.13;;;14.50;88.60;;;;;;10414132;28;20198;-82
2023/04/15 13:53:08;;;;;;;2.83;2.67;;;14.60;87.40;;;;;;10415409;28;20691;-82
2023/04/15 13:58:11;;;;;;;2.57;1.90;;;14.80;86.70;;;;;;10396658;28;20245;-82
2023/04/15 14:03:13;;;;;;;2.60;2.40;;;14.80;78.10;;;;;;10407365;28;20646;-82
2023/04/15 14:08:17;;;;;;;2.23;2.13;;;14.70;75.60;;;;;;10422912;28;20256;-81
2023/04/15 14:13:19;;;;;;;3.10;2.90;;;14.60;76.40;;;;;;10424280;28;20284;-83
2023/04/15 14:18:21;;;;;;;2.70;2.60;;;14.50;75.50;;;;;;10423018;28;20195;-82
2023/04/15 14:23:25;;;;;;;2.80;2.40;;;14.50;76.30;;;;;;10420481;28;20300;-82
2023/04/15 14:28:27;;;;;;;2.50;2.30;;;14.40;75.70;;;;;;10405009;28;20663;-82
2023/04/15 14:33:29;;;;;;;3.10;2.60;;;14.40;70.70;;;;;;10421662;28;20674;-82
2023/04/15 14:38:37;;;;;;;2.80;2.60;;;14.30;71.10;;;;;;10422423;28;20206;-82
2023/04/15 14:43:39;;;;;;;2.53;2.30;;;14.30;73.30;;;;;;10422624;28;20258;-82
2023/04/15 14:48:42;;;;;;;2.33;2.23;;;14.20;70.20;;;;;;10421047;28;20298;-82
2023/04/15 14:53:45;;;;;;;4.10;1.90;;;14.10;71.30;;;;;;10423076;28;20294;-82
2023/04/15 14:58:48;;;;;;;2.60;2.40;;;14.00;73.80;;;;;;10423452;28;20195;-82
2023/04/15 15:03:50;;;;;;;6.27;2.30;;;13.90;73.20;;;;;;10418803;28;20269;-82
2023/04/15 15:08:53;;;;;;;3.90;2.80;;;13.70;74.90;;;;;;10420292;28;20217;-82
2023/04/15 15:13:55;;;;;;;3.40;3.20;;;13.70;75.00;;;;;;10425488;28;20218;-81
2023/04/15 15:18:57;;;;;;;3.33;3.03;;;13.60;77.40;;;;;;10427806;28;20210;-81
2023/04/15 15:24:01;;;;;;;3.17;2.60;;;13.50;78.00;;;;;;10426111;28;20219;-82
2023/04/15 15:29:03;;;;;;;2.90;2.70;;;13.40;80.30;;;;;;10425083;28;20713;-81
2023/04/15 15:34:07;;;;;;;3.03;2.83;;;13.20;81.50;;;;;;10424339;28;20277;-81
2023/04/15 15:39:11;;;;;;;5.23;3.30;;;13.20;81.90;;;;;;10417180;28;20674;-82
2023/04/15 15:44:13;;;;;;;3.27;3.07;;;13.20;84.40;;;;;;10421421;28;20302;-82
2023/04/15 15:49:15;;;;;;;3.27;3.07;;;13.10;84.00;;;;;;10420902;28;20205;-82
2023/04/15 15:54:18;;;;;;;4.53;3.53;;;13.10;85.40;;;;;;10421026;28;20195;-82
2023/04/15 15:59:20;;;;;;;3.43;3.23;;;13.00;87.50;;;;;;10419663;28;20221;-82
2023/04/15 16:04:22;;;;;;;3.37;3.13;;;13.00;87.30;;;;;;10421635;28;20233;-82
2023/04/15 16:09:26;;;;;;;3.73;3.53;;;13.00;87.40;;;;;;10417933;28;20243;-82
2023/04/15 16:14:28;;;;;;;4.13;3.50;;;13.00;88.10;;;;;;10383603;28;20203;-82
2023/04/15 16:19:30;;;;;;;3.10;2.90;;;13.00;86.50;;;;;;10420256;28;20249;-82
2023/04/15 16:24:34;;;;;;;3.60;3.17;;;12.90;88.10;;;;;;10420092;28;20583;-82
2023/04/15 16:29:36;;;;;;;3.03;2.73;;;12.90;90.20;;;;;;10421166;28;20221;-82
2023/04/15 16:34:40;;;;;;;3.70;3.40;;;12.70;91.50;;;;;;10404113;28;20664;-82
2023/04/15 16:39:43;;;;;;;4.23;3.93;;;12.70;92.80;;;;;;10419009;28;20579;-82
2023/04/15 16:44:45;;;;;;;4.53;4.13;;;12.60;94.00;;;;;;10419953;28;20265;-82
2023/04/15 16:49:47;;;;;;;4.10;3.80;;;12.50;94.60;;;;;;10421613;28;20214;-82
2023/04/15 16:54:51;;;;;;;4.70;4.30;;;12.40;95.40;;;;;;10420249;28;20671;-82
2023/04/15 16:59:54;;;;;;;5.10;4.77;;;12.30;96.20;;;;;;10418351;28;20225;-82
2023/04/15 17:04:56;;;;;;;4.13;3.83;;;12.30;96.70;;;;;;10424329;28;20293;-82
2023/04/15 17:10:02;;;;;;;5.23;4.90;;;12.20;97.80;;;;;;10414768;28;20246;-81
2023/04/15 17:15:05;;;;;;;5.80;5.30;;;12.10;99.00;;;;;;10417305;28;20258;-83
2023/04/15 17:20:08;;;;;;;4.77;4.33;;;11.90;99.90;;;;;;10421403;28;20305;-83
2023/04/15 17:25:12;;;;;;;6.20;5.80;;;11.80;99.90;;;;;;10420070;28;20678;-83
2023/04/15 17:30:15;;;;;;;6.07;5.63;;;11.60;99.90;;;;;;10419417;28;20214;-82
2023/04/15 17:35:17;;;;;;;6.50;5.33;;;11.40;99.90;;;;;;10421988;28;20202;-83
2023/04/15 17:40:21;;;;;;;5.23;4.87;;;11.30;99.90;;;;;;10411671;28;20225;-83
2023/04/15 17:45:23;;;;;;;5.07;4.50;;;11.30;99.90;;;;;;10429373;28;20210;-83
2023/04/15 17:50:25;;;;;;;5.60;4.97;;;11.20;99.90;;;;;;10417733;28;20314;-82
2023/04/15 17:55:28;;;;;;;5.70;5.40;;;11.20;99.90;;;;;;10424602;28;20194;-83
2023/04/15 18:00:31;;;;;;;5.13;4.83;;;11.10;99.90;;;;;;10422653;28;20246;-83
2023/04/15 18:05:33;;;;;;;4.90;4.50;;;11.00;99.90;;;;;;10422626;28;20227;-82
2023/04/15 18:10:38;;;;;;;4.83;4.63;;;11.00;99.90;;;;;;10420019;28;20710;-82
2023/04/15 18:15:40;;;;;;;5.00;4.70;;;10.90;99.90;;;;;;10422752;28;20191;-82
2023/04/15 18:20:42;;;;;;;6.73;6.23;;;10.90;99.90;;;;;;10423062;28;20214;-83
2023/04/15 18:25:45;;;;;;;8.07;7.47;;;10.80;99.90;;;;;;10422164;28;20280;-83
2023/04/15 18:30:47;;;;;;;7.10;6.60;;;10.80;99.90;;;;;;10422196;28;20218;-83
2023/04/15 18:35:50;;;;;;;8.30;7.40;;;10.70;99.90;;;;;;10424474;28;20194;-83
2023/04/15 18:40:53;;;;;;;8.57;7.90;;;10.70;99.90;;;;;;10424011;28;20621;-83
2023/04/15 18:45:55;;;;;;;10.00;9.30;;;10.60;99.90;;;;;;10379787;28;20239;-83
2023/04/15 18:50:57;;;;;;;8.43;7.97;;;10.60;99.90;;;;;;10422274;28;20214;-82
2023/04/15 18:56:02;;;;;;;6.23;5.83;;;10.60;99.90;;;;;;10428293;28;20206;-82
2023/04/15 19:01:04;;;;;;;8.60;8.20;;;10.60;99.90;;;;;;10416533;28;20694;-82
2023/04/15 19:06:06;;;;;;;8.90;8.43;;;10.50;99.90;;;;;;10422478;28;20272;-82
2023/04/15 19:11:09;;;;;;;10.07;9.50;;;10.40;99.90;;;;;;10422509;28;20261;-82
2023/04/15 19:16:12;;;;;;;12.27;11.57;;;10.40;99.90;;;;;;10403186;28;20226;-82
2023/04/15 19:21:14;;;;;;;12.20;11.50;;;10.30;99.90;;;;;;10418548;28;20612;-82
2023/04/15 19:26:18;;;;;;;13.80;13.00;;;10.30;99.90;;;;;;10401048;28;20282;-82
2023/04/15 19:31:20;;;;;;;12.77;12.07;;;10.30;99.90;;;;;;10402641;28;20218;-82
2023/04/15 19:36:22;;;;;;;15.17;14.23;;;10.20;99.90;;;;;;10422338;28;20190;-82
2023/04/15 19:41:25;;;;;;;13.17;12.30;;;10.20;99.90;;;;;;10422290;28;20221;-82
2023/04/15 19:46:27;;;;;;;16.67;15.67;;;10.20;99.90;;;;;;10423830;28;20276;-81
2023/04/15 19:51:30;;;;;;;15.70;14.80;;;10.20;99.90;;;;;;10419789;28;20637;-84
2023/04/15 19:56:34;;;;;;;17.20;16.10;;;10.20;99.90;;;;;;10421515;28;20253;-82
2023/04/15 20:01:36;;;;;;;18.30;17.03;;;10.10;99.90;;;;;;10421983;28;20690;-82
2023/04/15 20:06:38;;;;;;;18.57;17.37;;;10.20;99.90;;;;;;10420657;28;20214;-82
2023/04/15 20:11:42;;;;;;;17.83;16.63;;;10.10;99.90;;;;;;10422186;28;20671;-82
2023/04/15 20:16:44;;;;;;;17.87;16.67;;;10.10;99.90;;;;;;10423152;28;20218;-82
2023/04/15 20:21:46;;;;;;;18.23;17.03;;;10.10;99.90;;;;;;10422710;28;20246;-82
2023/04/15 20:26:49;;;;;;;19.20;17.90;;;10.10;99.90;;;;;;10423946;28;20239;-82
2023/04/15 20:31:52;;;;;;;18.30;17.00;;;10.10;99.90;;;;;;10422420;28;20210;-82
2023/04/15 20:36:54;;;;;;;19.87;18.37;;;10.10;99.90;;;;;;10421846;28;20199;-82
2023/04/15 20:41:57;;;;;;;15.10;14.00;;;10.10;99.90;;;;;;10422808;28;20222;-82
2023/04/15 20:46:59;;;;;;;19.20;17.80;;;10.10;99.90;;;;;;10427302;28;20593;-82
2023/04/15 20:52:01;;;;;;;19.80;18.30;;;10.10;99.90;;;;;;10423254;28;20216;-83
2023/04/15 20:57:05;;;;;;;19.70;18.23;;;10.10;99.90;;;;;;10422862;28;20321;-83
2023/04/15 21:02:07;;;;;;;19.53;18.23;;;10.10;99.90;;;;;;10420158;28;20272;-83
2023/04/15 21:07:09;;;;;;;18.80;17.60;;;10.10;99.90;;;;;;10422948;28;20218;-82
2023/04/15 21:12:13;;;;;;;20.00;18.70;;;10.00;99.90;;;;;;10423531;28;20273;-82
2023/04/15 21:17:15;;;;;;;19.00;17.70;;;10.00;99.90;;;;;;10428345;28;20640;-82
2023/04/15 21:22:17;;;;;;;20.73;19.33;;;10.00;99.90;;;;;;10420905;28;20218;-82
2023/04/15 21:27:20;;;;;;;20.00;18.70;;;10.00;99.90;;;;;;10411843;28;20593;-82
2023/04/15 21:32:22;;;;;;;19.33;18.03;;;10.00;99.90;;;;;;10430562;28;20245;-82
2023/04/15 21:37:24;;;;;;;20.57;19.17;;;10.00;99.90;;;;;;10431799;28;20194;-82
2023/04/15 21:42:29;;;;;;;22.47;20.90;;;10.00;99.90;;;;;;10428791;28;20289;-81
2023/04/15 21:47:31;;;;;;;21.80;20.37;;;10.00;99.90;;;;;;10418326;28;20688;-82
2023/04/15 21:52:33;;;;;;;21.57;20.03;;;10.00;99.90;;;;;;10402465;28;20289;-82
2023/04/15 21:57:37;;;;;;;22.30;20.80;;;10.00;99.90;;;;;;10399547;28;20216;-81
2023/04/15 22:02:39;;;;;;;22.80;21.10;;;10.10;99.90;;;;;;10419455;28;20226;-82
2023/04/15 22:07:41;;;;;;;22.87;21.07;;;10.10;99.90;;;;;;10402369;28;20241;-82
2023/04/15 22:12:44;;;;;;;22.27;20.50;;;10.10;99.90;;;;;;10416816;28;20656;-81
2023/04/15 22:17:46;;;;;;;21.93;20.40;;;10.00;99.90;;;;;;10400150;28;20206;-81
2023/04/15 22:22:48;;;;;;;23.97;22.10;;;10.00;99.90;;;;;;10423213;28;20214;-81
2023/04/15 22:27:52;;;;;;;24.77;22.90;;;10.00;99.90;;;;;;10423031;28;20223;-81
2023/04/15 22:32:54;;;;;;;23.40;21.63;;;9.90;99.90;;;;;;10426449;28;20249;-82
2023/04/15 22:37:56;;;;;;;21.67;20.07;;;10.00;99.90;;;;;;10426093;28;20249;-82
2023/04/15 22:42:59;;;;;;;23.60;21.80;;;10.00;99.90;;;;;;10412753;28;20214;-82
2023/04/15 22:48:04;;;;;;;23.23;21.50;;;9.90;99.90;;;;;;10408791;28;20215;-82
2023/04/15 22:53:06;;;;;;;23.10;21.30;;;9.90;99.90;;;;;;10406870;28;20222;-81
2023/04/15 22:58:09;;;;;;;22.80;21.10;;;9.90;99.90;;;;;;10423974;28;20579;-81
2023/04/15 23:03:11;;;;;;;24.30;22.43;;;9.90;99.90;;;;;;10424851;28;20276;-82
2023/04/15 23:08:13;;;;;;;23.83;22.03;;;9.90;99.90;;;;;;10422917;28;20301;-82
2023/04/15 23:13:17;;;;;;;24.10;22.20;;;9.90;99.90;;;;;;10421092;28;20233;-82
2023/04/15 23:18:19;;;;;;;22.60;20.90;;;10.00;99.90;;;;;;10407716;28;20919;-82
2023/04/15 23:23:21;;;;;;;22.03;20.27;;;10.00;99.90;;;;;;10424960;28;20242;-82
2023/04/15 23:28:24;;;;;;;23.77;21.87;;;9.90;99.90;;;;;;10424509;28;20241;-81
2023/04/15 23:33:27;;;;;;;24.33;22.53;;;9.90;99.90;;;;;;10423745;28;20305;-80
2023/04/15 23:38:29;;;;;;;25.20;23.20;;;9.90;99.90;;;;;;10425544;28;20207;-81
2023/04/15 23:43:32;;;;;;;24.83;22.83;;;9.90;99.90;;;;;;10429924;28;20214;-79
2023/04/15 23:48:34;;;;;;;25.97;23.87;;;9.90;99.90;;;;;;10423689;28;20211;-81
2023/04/15 23:53:36;;;;;;;26.40;24.30;;;9.90;99.90;;;;;;10424324;28;20639;-81
2023/04/15 23:58:39;;;;;;;26.50;24.50;;;9.80;99.90;;;;;;10428884;28;20205;-82
